Time;durP1;ratioP1;P1;durP2;ratioP2;P2;SDS_P1;SDS_P2;PMS_P1;PMS_P2;Temp;Humidity;BMP_temperature;BMP_pressure;BME280_temperature;BME280_humidity;BME280_pressure;Samples;Min_cycle;Max_cycle;Signal;HPM_P1;HPM_P2
2021/12/21 00:00:18;;;;;;;4.00;1.70;;;;;;;;;;7390085;19;19999;-75
2021/12/21 00:02:46;;;;;;;2.78;1.40;;;;;;;;;;7389811;19;20048;-75
2021/12/21 00:05:19;;;;;;;2.78;1.35;;;;;;;;;;7388665;19;20005;-75
2021/12/21 00:07:46;;;;;;;3.20;1.40;;;;;;;;;;7389711;19;20025;-75
2021/12/21 00:10:12;;;;;;;3.15;1.27;;;;;;;;;;7389484;19;20023;-75
2021/12/21 00:12:46;;;;;;;4.50;1.40;;;;;;;;;;7389541;19;19991;-75
2021/12/21 00:15:34;;;;;;;2.40;1.65;;;;;;;;;;7388257;19;20002;-75
2021/12/21 00:18:15;;;;;;;2.78;1.48;;;;;;;;;;7389206;19;20338;-75
2021/12/21 00:23:29;;;;;;;1.90;1.25;;;;;;;;;;7396754;19;19995;-75
2021/12/21 00:25:55;;;;;;;4.07;1.75;;;;;;;;;;7394353;19;20023;-75
2021/12/21 00:28:21;;;;;;;5.70;2.00;;;;;;;;;;7396840;19;20054;-75
2021/12/21 00:30:46;;;;;;;3.75;1.70;;;;;;;;;;7396057;19;20021;-75
2021/12/21 00:33:11;;;;;;;3.97;1.63;;;;;;;;;;7396639;19;19998;-75
2021/12/21 00:35:36;;;;;;;3.45;1.33;;;;;;;;;;7394259;19;20396;-75
2021/12/21 00:38:04;;;;;;;4.78;1.58;;;;;;;;;;7399977;19;20058;-75
2021/12/21 00:40:29;;;;;;;2.35;1.38;;;;;;;;;;7400596;19;20709;-75
2021/12/21 00:42:55;;;;;;;3.22;1.50;;;;;;;;;;7396102;19;19991;-75
2021/12/21 00:45:20;;;;;;;2.63;1.50;;;;;;;;;;7394115;19;19999;-75
2021/12/21 00:47:48;;;;;;;3.63;1.27;;;;;;;;;;7395956;19;20109;-75
2021/12/21 00:50:17;;;;;;;2.65;1.23;;;;;;;;;;7395610;19;20005;-75
2021/12/21 00:52:44;;;;;;;3.53;1.38;;;;;;;;;;7396468;19;20315;-75
2021/12/21 00:55:10;;;;;;;1.52;1.02;;;;;;;;;;7394463;19;20006;-75
2021/12/21 00:57:35;;;;;;;2.80;1.40;;;;;;;;;;7395521;19;19995;-75
2021/12/21 01:00:00;;;;;;;2.30;1.20;;;;;;;;;;7396037;19;20009;-77
2021/12/21 01:02:26;;;;;;;4.47;1.23;;;;;;;;;;7395662;19;20414;-75
2021/12/21 01:04:52;;;;;;;4.03;1.38;;;;;;;;;;7394474;19;20031;-75
2021/12/21 01:07:25;;;;;;;2.33;1.27;;;;;;;;;;7395479;19;19991;-75
2021/12/21 01:12:36;;;;;;;2.85;1.40;;;;;;;;;;7393108;19;19995;-75
2021/12/21 01:15:14;;;;;;;2.60;1.30;;;;;;;;;;7393633;19;20016;-75
2021/12/21 01:17:51;;;;;;;4.97;1.33;;;;;;;;;;7395105;19;20005;-75
2021/12/21 01:20:32;;;;;;;2.38;1.20;;;;;;;;;;7395074;19;20003;-75
2021/12/21 01:31:17;;;;;;;4.70;1.33;;;;;;;;;;7393622;19;20345;-75
2021/12/21 01:41:55;;;;;;;3.33;1.30;;;;;;;;;;7390701;19;19999;-74
2021/12/21 01:49:52;;;;;;;1.63;0.82;;;;;;;;;;7394118;19;20352;-75
2021/12/21 01:52:23;;;;;;;1.95;1.23;;;;;;;;;;7391934;19;19995;-75
2021/12/21 01:54:49;;;;;;;3.38;1.20;;;;;;;;;;7393217;19;19995;-74
2021/12/21 01:57:15;;;;;;;2.58;0.95;;;;;;;;;;7393674;19;19999;-75
2021/12/21 01:59:42;;;;;;;4.47;1.05;;;;;;;;;;7391500;19;19991;-75
2021/12/21 02:02:10;;;;;;;3.55;1.42;;;;;;;;;;7393603;19;19999;-75
2021/12/21 02:04:37;;;;;;;2.63;1.30;;;;;;;;;;7392404;19;20027;-75
2021/12/21 02:07:03;;;;;;;3.38;1.48;;;;;;;;;;7393612;19;20469;-75
2021/12/21 02:09:37;;;;;;;3.08;1.40;;;;;;;;;;7393080;19;20046;-75
2021/12/21 02:12:15;;;;;;;2.17;1.10;;;;;;;;;;7391624;19;19998;-75
2021/12/21 02:14:42;;;;;;;4.22;1.10;;;;;;;;;;7392558;19;20342;-75
2021/12/21 02:17:56;;;;;;;1.88;0.95;;;;;;;;;;7397251;19;20000;-75
2021/12/21 02:29:09;;;;;;;3.58;1.38;;;;;;;;;;7392385;19;20032;-75
2021/12/21 02:31:33;;;;;;;2.00;0.77;;;;;;;;;;7391088;19;19995;-75
2021/12/21 02:33:58;;;;;;;3.60;1.10;;;;;;;;;;7392066;19;20339;-75
2021/12/21 02:36:23;;;;;;;1.92;1.13;;;;;;;;;;7392579;19;20019;-75
2021/12/21 02:38:49;;;;;;;2.05;1.27;;;;;;;;;;7390198;19;20013;-75
2021/12/21 02:41:14;;;;;;;2.90;1.20;;;;;;;;;;7391999;19;19999;-75
2021/12/21 02:43:39;;;;;;;1.38;0.90;;;;;;;;;;7390763;19;20368;-75
2021/12/21 02:46:06;;;;;;;7.63;1.30;;;;;;;;;;7390204;19;20003;-75
2021/12/21 02:48:32;;;;;;;5.00;1.02;;;;;;;;;;7392368;19;19999;-75
2021/12/21 02:50:58;;;;;;;4.80;1.40;;;;;;;;;;7391374;19;20475;-75
2021/12/21 02:53:23;;;;;;;3.47;1.20;;;;;;;;;;7391666;19;19995;-75
2021/12/21 02:55:48;;;;;;;2.58;1.10;;;;;;;;;;7390029;19;20054;-75
2021/12/21 02:58:13;;;;;;;2.78;1.05;;;;;;;;;;7390096;19;19994;-75
2021/12/21 03:00:39;;;;;;;1.63;1.05;;;;;;;;;;7391303;19;20123;-75
2021/12/21 03:03:12;;;;;;;3.92;1.38;;;;;;;;;;7391480;19;19999;-77
2021/12/21 03:05:39;;;;;;;3.13;1.30;;;;;;;;;;7390274;19;20007;-75
2021/12/21 03:08:12;;;;;;;5.18;1.20;;;;;;;;;;7394502;19;19999;-74
2021/12/21 03:10:45;;;;;;;2.38;1.25;;;;;;;;;;7390971;19;19994;-75
2021/12/21 03:15:54;;;;;;;3.17;1.25;;;;;;;;;;7389671;19;20054;-75
2021/12/21 03:18:20;;;;;;;3.15;1.20;;;;;;;;;;7391154;19;19994;-75
2021/12/21 03:20:45;;;;;;;1.58;0.90;;;;;;;;;;7394374;19;19998;-75
2021/12/21 03:23:10;;;;;;;1.95;1.10;;;;;;;;;;7390587;19;20002;-74
2021/12/21 03:25:35;;;;;;;1.60;1.08;;;;;;;;;;7389515;19;20010;-74
2021/12/21 03:28:01;;;;;;;2.08;1.00;;;;;;;;;;7390963;19;20002;-74
2021/12/21 03:30:27;;;;;;;3.78;1.15;;;;;;;;;;7390220;19;19994;-75
2021/12/21 03:32:53;;;;;;;1.83;1.10;;;;;;;;;;7390956;19;19994;-75
2021/12/21 03:35:18;;;;;;;3.13;0.93;;;;;;;;;;7389219;19;20008;-75
2021/12/21 03:37:43;;;;;;;4.60;1.00;;;;;;;;;;7390236;19;20026;-75
2021/12/21 03:40:09;;;;;;;3.05;1.08;;;;;;;;;;7390500;19;19991;-75
2021/12/21 03:42:34;;;;;;;3.63;0.80;;;;;;;;;;7390983;19;19994;-75
2021/12/21 03:45:00;;;;;;;2.53;0.90;;;;;;;;;;7389041;19;19998;-75
2021/12/21 03:47:25;;;;;;;2.55;1.05;;;;;;;;;;7390731;19;19994;-75
2021/12/21 03:49:54;;;;;;;4.22;1.35;;;;;;;;;;7389673;19;20001;-75
2021/12/21 03:52:22;;;;;;;3.20;0.93;;;;;;;;;;7389164;19;20517;-75
2021/12/21 03:54:51;;;;;;;3.50;0.88;;;;;;;;;;7389948;19;20450;-75
2021/12/21 03:57:17;;;;;;;1.85;0.90;;;;;;;;;;7391663;19;19994;-74
2021/12/21 03:59:43;;;;;;;1.95;0.98;;;;;;;;;;7389416;19;19995;-74
2021/12/21 04:02:11;;;;;;;2.35;1.10;;;;;;;;;;7390352;19;20092;-74
2021/12/21 04:04:37;;;;;;;4.30;1.13;;;;;;;;;;7389295;19;20078;-75
2021/12/21 04:07:03;;;;;;;2.78;1.00;;;;;;;;;;7389763;19;19999;-75
2021/12/21 04:09:28;;;;;;;2.03;0.90;;;;;;;;;;7389192;19;19995;-75
2021/12/21 04:11:54;;;;;;;2.90;0.90;;;;;;;;;;7388267;19;20074;-75
2021/12/21 04:14:20;;;;;;;2.58;1.00;;;;;;;;;;7388754;19;20446;-74
2021/12/21 04:16:46;;;;;;;1.85;0.82;;;;;;;;;;7389632;19;19999;-74
2021/12/21 04:19:12;;;;;;;1.77;0.90;;;;;;;;;;7388822;19;19998;-74
2021/12/21 04:21:38;;;;;;;3.42;1.00;;;;;;;;;;7389227;19;20121;-74
2021/12/21 04:24:03;;;;;;;1.55;1.13;;;;;;;;;;7388443;19;20014;-75
2021/12/21 04:26:29;;;;;;;1.33;0.70;;;;;;;;;;7389506;19;20063;-76
2021/12/21 04:28:54;;;;;;;2.33;0.93;;;;;;;;;;7388576;19;20335;-75
2021/12/21 04:31:19;;;;;;;1.35;0.80;;;;;;;;;;7388284;19;19991;-74
2021/12/21 04:33:45;;;;;;;1.50;1.00;;;;;;;;;;7388747;19;20396;-75
2021/12/21 04:36:11;;;;;;;2.58;1.10;;;;;;;;;;7387692;19;20035;-75
2021/12/21 04:38:40;;;;;;;1.63;0.85;;;;;;;;;;7388266;19;20426;-74
2021/12/21 04:41:13;;;;;;;0.90;0.68;;;;;;;;;;7388689;19;19994;-74
2021/12/21 04:43:39;;;;;;;1.27;0.82;;;;;;;;;;7388408;19;20020;-75
2021/12/21 04:46:05;;;;;;;4.85;1.20;;;;;;;;;;7388074;19;19999;-75
2021/12/21 04:48:31;;;;;;;4.70;1.13;;;;;;;;;;7388797;19;20072;-75
2021/12/21 04:50:56;;;;;;;2.42;1.10;;;;;;;;;;7387751;19;20011;-75
2021/12/21 04:53:22;;;;;;;2.03;1.33;;;;;;;;;;7388002;19;19995;-75
2021/12/21 04:55:47;;;;;;;2.83;1.20;;;;;;;;;;7386735;19;19998;-75
2021/12/21 04:58:13;;;;;;;3.33;0.70;;;;;;;;;;7387814;19;19998;-75
2021/12/21 05:00:39;;;;;;;2.60;1.00;;;;;;;;;;7388639;19;19998;-75
2021/12/21 05:03:05;;;;;;;1.98;1.00;;;;;;;;;;7387751;19;20003;-77
2021/12/21 05:05:31;;;;;;;3.28;1.00;;;;;;;;;;7387007;19;20028;-75
2021/12/21 05:08:08;;;;;;;1.60;0.93;;;;;;;;;;7395006;19;20294;-75
2021/12/21 05:10:49;;;;;;;4.60;0.88;;;;;;;;;;7395078;19;20351;-75
2021/12/21 05:13:16;;;;;;;2.63;1.10;;;;;;;;;;7394880;19;20323;-74
2021/12/21 05:15:42;;;;;;;2.55;1.13;;;;;;;;;;7393078;19;20525;-75
2021/12/21 05:18:08;;;;;;;4.47;1.20;;;;;;;;;;7394540;19;20071;-77
2021/12/21 05:20:34;;;;;;;2.20;1.00;;;;;;;;;;7394996;19;19995;-75
2021/12/21 05:23:02;;;;;;;1.58;0.80;;;;;;;;;;7392981;19;20019;-75
2021/12/21 05:25:27;;;;;;;3.33;1.25;;;;;;;;;;7391778;19;20442;-75
2021/12/21 05:27:53;;;;;;;2.08;0.80;;;;;;;;;;7397414;19;20002;-75
2021/12/21 05:30:18;;;;;;;2.20;0.98;;;;;;;;;;7394462;19;20002;-74
2021/12/21 05:32:43;;;;;;;2.55;1.33;;;;;;;;;;7392043;19;20013;-74
2021/12/21 05:35:09;;;;;;;2.05;0.88;;;;;;;;;;7395394;19;20066;-75
2021/12/21 05:37:37;;;;;;;1.13;0.75;;;;;;;;;;7396613;19;19998;-75
2021/12/21 05:40:12;;;;;;;1.33;0.73;;;;;;;;;;7394380;19;20098;-75
2021/12/21 05:42:38;;;;;;;1.63;1.00;;;;;;;;;;7393816;19;20024;-75
2021/12/21 05:45:05;;;;;;;1.25;0.70;;;;;;;;;;7392711;19;19998;-75
2021/12/21 05:47:30;;;;;;;2.47;1.27;;;;;;;;;;7394350;19;20023;-77
2021/12/21 05:49:55;;;;;;;1.83;1.15;;;;;;;;;;7393962;19;19995;-75
2021/12/21 05:52:21;;;;;;;1.95;0.90;;;;;;;;;;7392094;19;19994;-75
2021/12/21 05:54:46;;;;;;;3.10;1.20;;;;;;;;;;7392764;19;20023;-77
2021/12/21 05:57:11;;;;;;;2.60;1.10;;;;;;;;;;7394004;19;20010;-74
2021/12/21 05:59:37;;;;;;;6.97;1.23;;;;;;;;;;7393650;19;20040;-75
2021/12/21 06:02:03;;;;;;;1.88;1.00;;;;;;;;;;7393783;19;19994;-75
2021/12/21 06:04:28;;;;;;;4.28;1.08;;;;;;;;;;7392996;19;20002;-75
2021/12/21 06:06:53;;;;;;;2.25;1.10;;;;;;;;;;7393437;19;20358;-75
2021/12/21 06:09:18;;;;;;;2.10;1.10;;;;;;;;;;7393084;19;19991;-75
2021/12/21 06:25:24;;;;;;;2.33;0.93;;;;;;;;;;7394792;19;20096;-75
2021/12/21 06:27:51;;;;;;;2.50;0.88;;;;;;;;;;7395460;19;20033;-75
2021/12/21 06:30:16;;;;;;;2.38;1.13;;;;;;;;;;7392470;19;20002;-75
2021/12/21 06:32:42;;;;;;;1.83;1.00;;;;;;;;;;7390303;19;20566;-75
2021/12/21 06:35:08;;;;;;;2.72;1.30;;;;;;;;;;7391498;19;19999;-75
2021/12/21 06:37:34;;;;;;;1.50;1.00;;;;;;;;;;7392566;19;20028;-75
2021/12/21 06:39:59;;;;;;;1.95;1.05;;;;;;;;;;7392414;19;20084;-75
2021/12/21 06:42:26;;;;;;;1.90;0.98;;;;;;;;;;7391861;19;20015;-75
2021/12/21 06:44:56;;;;;;;2.40;1.10;;;;;;;;;;7391511;19;20292;-75
2021/12/21 06:52:51;;;;;;;2.25;1.08;;;;;;;;;;7392050;19;20018;-75
2021/12/21 06:55:16;;;;;;;3.08;1.30;;;;;;;;;;7390466;19;19999;-75
2021/12/21 06:57:43;;;;;;;2.28;1.23;;;;;;;;;;7392513;19;20023;-76
2021/12/21 07:00:14;;;;;;;1.73;1.00;;;;;;;;;;7391399;19;19998;-76
2021/12/21 07:02:40;;;;;;;2.25;0.95;;;;;;;;;;7392085;19;20002;-76
2021/12/21 07:05:06;;;;;;;2.53;1.15;;;;;;;;;;7390461;19;20006;-75
2021/12/21 07:07:31;;;;;;;4.40;1.20;;;;;;;;;;7391290;19;20009;-77
2021/12/21 07:10:00;;;;;;;1.63;0.88;;;;;;;;;;7390824;19;19998;-75
2021/12/21 07:18:11;;;;;;;3.05;1.10;;;;;;;;;;7391116;19;20543;-76
2021/12/21 07:20:37;;;;;;;1.95;0.95;;;;;;;;;;7391060;19;20003;-77
2021/12/21 07:23:03;;;;;;;2.30;1.10;;;;;;;;;;7390509;19;19998;-76
2021/12/21 07:25:29;;;;;;;3.67;1.10;;;;;;;;;;7389657;19;20002;-75
2021/12/21 07:27:55;;;;;;;2.15;1.10;;;;;;;;;;7390865;19;19999;-76
2021/12/21 07:30:20;;;;;;;3.10;1.10;;;;;;;;;;7388351;19;20006;-76
2021/12/21 07:32:46;;;;;;;2.35;1.10;;;;;;;;;;7388840;19;20008;-76
2021/12/21 07:35:11;;;;;;;1.77;0.95;;;;;;;;;;7392711;19;20006;-76
2021/12/21 07:37:36;;;;;;;1.75;1.00;;;;;;;;;;7390971;19;20001;-76
2021/12/21 07:40:06;;;;;;;1.67;0.93;;;;;;;;;;7389843;19;20003;-75
2021/12/21 07:42:31;;;;;;;2.50;0.90;;;;;;;;;;7390245;19;20014;-75
2021/12/21 07:44:57;;;;;;;2.50;1.13;;;;;;;;;;7389460;19;20005;-74
2021/12/21 07:47:22;;;;;;;3.55;1.02;;;;;;;;;;7390133;19;20491;-75
2021/12/21 07:49:48;;;;;;;1.55;0.90;;;;;;;;;;7389860;19;20006;-75
2021/12/21 07:52:14;;;;;;;3.08;1.40;;;;;;;;;;7389041;19;19995;-76
2021/12/21 07:54:39;;;;;;;2.38;0.95;;;;;;;;;;7389017;19;19999;-76
2021/12/21 07:57:06;;;;;;;1.73;1.13;;;;;;;;;;7389737;19;19999;-74
2021/12/21 07:59:33;;;;;;;3.10;1.00;;;;;;;;;;7389818;19;20383;-76
2021/12/21 08:01:58;;;;;;;2.75;1.00;;;;;;;;;;7389948;19;20006;-76
2021/12/21 08:04:27;;;;;;;4.10;0.82;;;;;;;;;;7392095;19;20385;-76
2021/12/21 08:06:55;;;;;;;2.33;1.10;;;;;;;;;;7392427;19;20003;-75
2021/12/21 08:09:20;;;;;;;2.38;1.20;;;;;;;;;;7389929;19;19995;-76
2021/12/21 08:14:30;;;;;;;3.72;1.20;;;;;;;;;;7389740;19;20023;-75
2021/12/21 08:16:55;;;;;;;3.58;1.38;;;;;;;;;;7389861;19;19995;-76
2021/12/21 08:19:20;;;;;;;2.90;1.08;;;;;;;;;;7388978;19;20019;-76
2021/12/21 08:21:46;;;;;;;2.80;1.20;;;;;;;;;;7389878;19;20327;-75
2021/12/21 08:24:11;;;;;;;3.20;1.20;;;;;;;;;;7388912;19;19999;-77
2021/12/21 08:26:36;;;;;;;2.50;1.23;;;;;;;;;;7387462;19;20463;-75
2021/12/21 08:29:02;;;;;;;2.28;1.20;;;;;;;;;;7388753;19;19990;-75
2021/12/21 08:31:28;;;;;;;2.00;1.10;;;;;;;;;;7388197;19;20021;-75
2021/12/21 08:33:54;;;;;;;3.15;1.63;;;;;;;;;;7388755;19;19998;-76
2021/12/21 08:36:19;;;;;;;2.53;1.42;;;;;;;;;;7386624;19;19998;-76
2021/12/21 08:38:45;;;;;;;3.70;1.50;;;;;;;;;;7388169;19;19995;-77
2021/12/21 08:41:10;;;;;;;5.72;1.98;;;;;;;;;;7391465;19;20020;-76
2021/12/21 08:43:36;;;;;;;2.67;1.45;;;;;;;;;;7396091;19;19995;-75
2021/12/21 08:46:02;;;;;;;1.98;1.00;;;;;;;;;;7393535;19;20003;-77
2021/12/21 08:48:28;;;;;;;2.55;1.38;;;;;;;;;;7395709;19;20023;-77
2021/12/21 08:50:56;;;;;;;2.90;1.75;;;;;;;;;;7395533;19;20111;-77
2021/12/21 08:53:24;;;;;;;2.92;1.33;;;;;;;;;;7397455;19;20316;-75
2021/12/21 08:55:51;;;;;;;2.30;1.48;;;;;;;;;;7396106;19;20057;-75
2021/12/21 08:58:17;;;;;;;5.60;2.05;;;;;;;;;;7395312;19;20500;-77
2021/12/21 09:00:42;;;;;;;3.25;1.75;;;;;;;;;;7395534;19;19995;-75
2021/12/21 09:03:08;;;;;;;7.10;1.90;;;;;;;;;;7395292;19;20351;-75
2021/12/21 09:05:35;;;;;;;2.53;1.70;;;;;;;;;;7393773;19;20006;-75
2021/12/21 09:08:02;;;;;;;3.08;1.95;;;;;;;;;;7395582;19;19990;-75
2021/12/21 09:10:29;;;;;;;3.55;1.98;;;;;;;;;;7395176;19;20058;-75
2021/12/21 09:12:55;;;;;;;3.63;1.83;;;;;;;;;;7392662;19;19999;-77
2021/12/21 09:15:21;;;;;;;4.53;2.25;;;;;;;;;;7394001;19;20001;-75
2021/12/21 09:17:47;;;;;;;3.83;2.38;;;;;;;;;;7395060;19;20006;-75
2021/12/21 09:20:15;;;;;;;3.22;2.08;;;;;;;;;;7395383;19;20326;-75
2021/12/21 09:22:42;;;;;;;4.85;1.83;;;;;;;;;;7394987;19;20018;-75
2021/12/21 09:25:08;;;;;;;4.93;2.08;;;;;;;;;;7393134;19;20002;-75
2021/12/21 09:27:34;;;;;;;4.00;1.95;;;;;;;;;;7394610;19;19994;-75
2021/12/21 09:30:00;;;;;;;3.85;2.40;;;;;;;;;;7394672;19;19991;-75
2021/12/21 09:32:25;;;;;;;5.50;1.90;;;;;;;;;;7393617;19;20383;-75
2021/12/21 09:34:51;;;;;;;3.55;2.13;;;;;;;;;;7393497;19;19994;-75
2021/12/21 09:37:20;;;;;;;6.90;2.35;;;;;;;;;;7398283;19;20373;-75
2021/12/21 09:39:51;;;;;;;4.32;1.85;;;;;;;;;;7393670;19;20010;-77
2021/12/21 09:42:21;;;;;;;4.60;2.38;;;;;;;;;;7394192;19;20001;-75
2021/12/21 09:44:47;;;;;;;3.50;2.17;;;;;;;;;;7397107;19;19995;-75
2021/12/21 09:47:14;;;;;;;6.15;2.55;;;;;;;;;;7397698;19;20482;-75
2021/12/21 09:49:41;;;;;;;4.57;2.38;;;;;;;;;;7393614;19;20003;-75
2021/12/21 09:52:08;;;;;;;4.13;2.53;;;;;;;;;;7391876;19;19998;-75
2021/12/21 09:54:34;;;;;;;6.28;2.72;;;;;;;;;;7392523;19;19999;-75
2021/12/21 09:57:00;;;;;;;4.95;2.78;;;;;;;;;;7393740;19;20001;-75
2021/12/21 09:59:26;;;;;;;7.45;3.15;;;;;;;;;;7393192;19;20030;-75
2021/12/21 10:01:51;;;;;;;5.38;3.08;;;;;;;;;;7393868;19;20054;-75
2021/12/21 10:04:18;;;;;;;4.25;2.90;;;;;;;;;;7393336;19;20002;-75
2021/12/21 10:06:50;;;;;;;6.32;2.78;;;;;;;;;;7393421;19;19999;-75
2021/12/21 10:09:20;;;;;;;5.05;2.55;;;;;;;;;;7393486;19;20149;-75
2021/12/21 10:11:48;;;;;;;5.15;3.03;;;;;;;;;;7392432;19;19999;-75
2021/12/21 10:14:15;;;;;;;4.82;2.75;;;;;;;;;;7392685;19;20021;-75
2021/12/21 10:16:42;;;;;;;4.57;3.28;;;;;;;;;;7393338;19;19998;-75
2021/12/21 10:19:07;;;;;;;6.80;3.60;;;;;;;;;;7392720;19;20407;-75
2021/12/21 10:21:44;;;;;;;7.68;4.30;;;;;;;;;;7392828;19;20016;-75
2021/12/21 10:24:09;;;;;;;4.53;3.30;;;;;;;;;;7392613;19;19998;-75
2021/12/21 10:26:34;;;;;;;8.43;3.72;;;;;;;;;;7392736;19;20316;-75
2021/12/21 10:29:06;;;;;;;5.45;3.78;;;;;;;;;;7392088;19;19998;-75
2021/12/21 10:31:44;;;;;;;7.63;4.20;;;;;;;;;;7392042;19;20054;-75
2021/12/21 10:34:16;;;;;;;7.63;3.35;;;;;;;;;;7394974;19;20022;-75
2021/12/21 10:36:50;;;;;;;7.78;3.97;;;;;;;;;;7397376;19;20122;-75
2021/12/21 10:39:24;;;;;;;6.80;3.80;;;;;;;;;;7392093;19;19998;-75
2021/12/21 10:41:52;;;;;;;5.65;3.67;;;;;;;;;;7392696;19;19991;-75
2021/12/21 10:44:19;;;;;;;5.88;3.80;;;;;;;;;;7391723;19;20010;-76
2021/12/21 10:46:47;;;;;;;8.85;4.78;;;;;;;;;;7392693;19;20023;-75
2021/12/21 10:49:18;;;;;;;7.80;4.80;;;;;;;;;;7391629;19;20002;-76
2021/12/21 10:51:57;;;;;;;8.38;4.40;;;;;;;;;;7391079;19;19998;-76
2021/12/21 10:54:27;;;;;;;6.57;4.13;;;;;;;;;;7390879;19;20006;-75
2021/12/21 10:57:08;;;;;;;10.20;4.88;;;;;;;;;;7391987;19;19994;-77
2021/12/21 10:59:38;;;;;;;8.13;4.90;;;;;;;;;;7391388;19;20399;-77
2021/12/21 11:02:10;;;;;;;8.45;4.80;;;;;;;;;;7391927;19;19994;-77
2021/12/21 11:04:41;;;;;;;7.82;4.63;;;;;;;;;;7389372;19;20505;-77
2021/12/21 11:10:14;;;;;;;5.30;3.15;;;;;;;;;;7389053;19;20002;-76
2021/12/21 11:12:42;;;;;;;5.38;3.33;;;;;;;;;;7390005;19;20022;-77
2021/12/21 11:15:09;;;;;;;8.93;4.28;;;;;;;;;;7390602;19;19995;-77
2021/12/21 11:17:35;;;;;;;9.27;4.47;;;;;;;;;;7390965;19;19999;-76
2021/12/21 11:20:00;;;;;;;9.27;4.28;;;;;;;;;;7390371;19;20425;-76
2021/12/21 11:22:28;;;;;;;7.13;4.07;;;;;;;;;;7391207;19;19997;-76
2021/12/21 11:24:55;;;;;;;9.00;4.50;;;;;;;;;;7393945;19;19998;-77
2021/12/21 11:27:23;;;;;;;8.00;4.85;;;;;;;;;;7394849;19;20012;-77
2021/12/21 11:29:52;;;;;;;7.65;3.67;;;;;;;;;;7390933;19;19991;-77
2021/12/21 11:32:17;;;;;;;6.15;4.05;;;;;;;;;;7390042;19;20004;-76
2021/12/21 11:37:31;;;;;;;7.07;3.55;;;;;;;;;;7391371;19;20018;-76
2021/12/21 11:39:56;;;;;;;5.50;3.45;;;;;;;;;;7391192;19;20002;-76
2021/12/21 11:42:46;;;;;;;11.88;3.88;;;;;;;;;;7390419;19;20363;-76
2021/12/21 11:45:23;;;;;;;7.15;3.88;;;;;;;;;;7389136;19;20021;-77
2021/12/21 11:47:57;;;;;;;5.45;3.42;;;;;;;;;;7390157;19;20001;-76
2021/12/21 11:50:22;;;;;;;7.00;4.13;;;;;;;;;;7389794;19;19998;-76
2021/12/21 11:52:51;;;;;;;7.10;4.13;;;;;;;;;;7388798;19;19999;-76
2021/12/21 11:55:18;;;;;;;8.05;4.78;;;;;;;;;;7388850;19;20509;-76
2021/12/21 11:57:50;;;;;;;8.57;4.80;;;;;;;;;;7389926;19;19991;-76
2021/12/21 12:00:19;;;;;;;9.15;4.43;;;;;;;;;;7389631;19;20002;-76
2021/12/21 12:02:46;;;;;;;5.97;3.83;;;;;;;;;;7389487;19;20571;-77
2021/12/21 12:05:29;;;;;;;8.00;4.15;;;;;;;;;;7388813;19;20304;-77
2021/12/21 12:08:05;;;;;;;7.97;4.18;;;;;;;;;;7387633;19;20498;-77
2021/12/21 12:10:32;;;;;;;8.32;4.20;;;;;;;;;;7389873;19;20025;-76
2021/12/21 12:13:32;;;;;;;8.52;3.70;;;;;;;;;;7388953;19;19999;-77
2021/12/21 12:16:09;;;;;;;5.38;3.55;;;;;;;;;;7389031;19;20407;-77
2021/12/21 12:18:37;;;;;;;6.82;3.88;;;;;;;;;;7396651;19;20311;-76
2021/12/21 12:21:17;;;;;;;7.72;3.97;;;;;;;;;;7396977;19;20331;-76
2021/12/21 12:23:48;;;;;;;6.47;4.10;;;;;;;;;;7396692;19;20576;-77
2021/12/21 12:26:27;;;;;;;6.13;3.55;;;;;;;;;;7393941;19;20008;-77
2021/12/21 12:28:54;;;;;;;7.15;4.15;;;;;;;;;;7397011;19;20008;-77
2021/12/21 12:31:28;;;;;;;10.25;3.60;;;;;;;;;;7395726;19;20001;-77
2021/12/21 12:33:54;;;;;;;6.38;3.42;;;;;;;;;;7396326;19;20003;-76
2021/12/21 12:36:19;;;;;;;5.15;2.95;;;;;;;;;;7393616;19;19991;-76
2021/12/21 12:38:44;;;;;;;4.78;3.38;;;;;;;;;;7395641;19;19994;-75
2021/12/21 12:41:12;;;;;;;6.40;3.58;;;;;;;;;;7396306;19;19999;-76
2021/12/21 12:43:41;;;;;;;5.65;3.38;;;;;;;;;;7396442;19;19991;-76
2021/12/21 12:46:09;;;;;;;6.72;3.47;;;;;;;;;;7393908;19;19998;-76
2021/12/21 12:48:47;;;;;;;5.45;3.13;;;;;;;;;;7395887;19;20002;-77
2021/12/21 12:51:29;;;;;;;4.70;3.30;;;;;;;;;;7395343;19;20526;-76
2021/12/21 12:53:55;;;;;;;5.47;3.30;;;;;;;;;;7395033;19;19998;-77
2021/12/21 12:56:21;;;;;;;3.53;2.75;;;;;;;;;;7393038;19;19995;-77
2021/12/21 12:58:53;;;;;;;4.60;3.00;;;;;;;;;;7395311;19;20366;-77
2021/12/21 13:01:22;;;;;;;6.28;3.25;;;;;;;;;;7395664;19;20473;-77
2021/12/21 13:03:48;;;;;;;6.75;3.05;;;;;;;;;;7398351;19;20098;-76
2021/12/21 13:06:17;;;;;;;5.97;3.28;;;;;;;;;;7396389;19;20087;-76
2021/12/21 13:08:43;;;;;;;4.60;2.95;;;;;;;;;;7394773;19;20336;-77
2021/12/21 13:11:09;;;;;;;5.53;2.58;;;;;;;;;;7395237;19;19995;-77
2021/12/21 13:13:35;;;;;;;4.53;2.38;;;;;;;;;;7395390;19;19991;-77
2021/12/21 13:16:24;;;;;;;6.50;3.22;;;;;;;;;;7393887;19;20354;-77
2021/12/21 13:19:02;;;;;;;4.25;2.90;;;;;;;;;;7395249;19;19986;-77
2021/12/21 13:21:29;;;;;;;5.03;2.42;;;;;;;;;;7396267;19;20020;-75
2021/12/21 13:24:05;;;;;;;5.07;2.67;;;;;;;;;;7394242;19;20010;-75
2021/12/21 13:26:50;;;;;;;4.15;2.40;;;;;;;;;;7393985;19;20434;-77
2021/12/21 13:29:18;;;;;;;4.55;2.40;;;;;;;;;;7394402;19;20058;-77
2021/12/21 13:31:45;;;;;;;4.68;2.15;;;;;;;;;;7393332;19;19994;-77
2021/12/21 13:34:11;;;;;;;6.03;2.85;;;;;;;;;;7394046;19;19995;-76
2021/12/21 13:36:41;;;;;;;3.55;2.42;;;;;;;;;;7394388;19;19994;-76
2021/12/21 13:39:40;;;;;;;3.22;2.38;;;;;;;;;;7393647;19;20316;-77
2021/12/21 13:42:15;;;;;;;3.92;2.22;;;;;;;;;;7392064;19;20065;-76
2021/12/21 13:44:44;;;;;;;3.72;2.20;;;;;;;;;;7393512;19;20508;-77
2021/12/21 13:47:30;;;;;;;3.05;2.35;;;;;;;;;;7394021;19;19999;-76
2021/12/21 13:50:05;;;;;;;3.35;2.28;;;;;;;;;;7397288;19;20022;-76
2021/12/21 13:52:36;;;;;;;2.83;2.10;;;;;;;;;;7392399;19;20005;-76
2021/12/21 13:55:03;;;;;;;6.57;2.50;;;;;;;;;;7395097;19;20338;-76
2021/12/21 13:57:29;;;;;;;3.42;2.13;;;;;;;;;;7393897;19;19990;-76
2021/12/21 13:59:57;;;;;;;3.78;2.53;;;;;;;;;;7393088;19;19990;-76
2021/12/21 14:02:33;;;;;;;3.78;2.13;;;;;;;;;;7393470;19;19999;-76
2021/12/21 14:05:02;;;;;;;4.50;2.35;;;;;;;;;;7392610;19;19995;-76
2021/12/21 14:07:31;;;;;;;3.28;1.95;;;;;;;;;;7393440;19;19998;-76
2021/12/21 14:10:06;;;;;;;5.15;2.38;;;;;;;;;;7392700;19;20021;-77
2021/12/21 14:12:32;;;;;;;5.15;2.22;;;;;;;;;;7391559;19;20596;-76
2021/12/21 14:14:57;;;;;;;3.30;2.03;;;;;;;;;;7392368;19;20018;-76
2021/12/21 14:17:27;;;;;;;4.25;2.40;;;;;;;;;;7391096;19;20008;-76
2021/12/21 14:19:57;;;;;;;5.72;2.78;;;;;;;;;;7392670;19;20430;-76
2021/12/21 14:22:22;;;;;;;5.93;2.75;;;;;;;;;;7393015;19;19994;-76
2021/12/21 14:24:51;;;;;;;3.13;2.17;;;;;;;;;;7391832;19;19999;-76
2021/12/21 14:27:19;;;;;;;5.78;2.13;;;;;;;;;;7392636;19;20073;-76
2021/12/21 14:29:45;;;;;;;6.03;2.15;;;;;;;;;;7392049;19;19999;-76
2021/12/21 14:34:42;;;;;;;5.05;2.42;;;;;;;;;;7392169;19;20025;-76
2021/12/21 14:37:09;;;;;;;4.43;2.47;;;;;;;;;;7392359;19;20005;-76
2021/12/21 14:39:36;;;;;;;3.03;2.15;;;;;;;;;;7389567;19;20019;-76
2021/12/21 14:42:06;;;;;;;3.95;2.40;;;;;;;;;;7392973;19;20003;-76
2021/12/21 14:44:41;;;;;;;3.42;2.72;;;;;;;;;;7394657;19;20502;-77
2021/12/21 14:47:09;;;;;;;3.33;2.38;;;;;;;;;;7395515;19;20349;-77
2021/12/21 14:49:50;;;;;;;3.58;2.65;;;;;;;;;;7391537;19;20404;-77
2021/12/21 14:52:29;;;;;;;3.10;1.92;;;;;;;;;;7391163;19;20003;-76
2021/12/21 14:55:07;;;;;;;2.22;1.88;;;;;;;;;;7390804;19;20002;-76
2021/12/21 14:57:45;;;;;;;5.60;2.45;;;;;;;;;;7391882;19;20002;-76
2021/12/21 15:00:17;;;;;;;3.55;2.28;;;;;;;;;;7391102;19;20028;-77
2021/12/21 15:05:12;;;;;;;2.08;1.80;;;;;;;;;;7390215;19;20350;-76
2021/12/21 15:07:39;;;;;;;9.90;3.92;;;;;;;;;;7391419;19;19998;-76
2021/12/21 15:10:06;;;;;;;6.90;2.88;;;;;;;;;;7390728;19;20498;-77
2021/12/21 15:12:32;;;;;;;6.35;3.20;;;;;;;;;;7389950;19;20027;-76
2021/12/21 15:14:58;;;;;;;7.82;2.75;;;;;;;;;;7390592;19;20003;-76
2021/12/21 15:17:23;;;;;;;8.50;2.53;;;;;;;;;;7391329;19;20454;-76
2021/12/21 15:19:50;;;;;;;3.75;2.20;;;;;;;;;;7390441;19;19998;-76
2021/12/21 15:22:15;;;;;;;3.83;2.20;;;;;;;;;;7390987;19;19998;-76
2021/12/21 15:24:41;;;;;;;3.05;1.85;;;;;;;;;;7390210;19;20426;-76
2021/12/21 15:27:07;;;;;;;3.08;1.98;;;;;;;;;;7390970;19;19998;-76
2021/12/21 15:29:33;;;;;;;5.00;2.25;;;;;;;;;;7390117;19;20068;-76
2021/12/21 15:31:58;;;;;;;3.13;1.88;;;;;;;;;;7389578;19;20006;-76
2021/12/21 15:34:23;;;;;;;3.75;2.17;;;;;;;;;;7393008;19;20002;-76
2021/12/21 15:36:49;;;;;;;4.05;2.03;;;;;;;;;;7395136;19;20357;-76
2021/12/21 15:39:17;;;;;;;3.47;1.95;;;;;;;;;;7389414;19;19994;-76
2021/12/21 15:41:45;;;;;;;2.33;1.77;;;;;;;;;;7390316;19;20023;-76
2021/12/21 15:44:11;;;;;;;3.20;1.80;;;;;;;;;;7389764;19;20503;-76
2021/12/21 15:46:36;;;;;;;4.55;1.77;;;;;;;;;;7389869;19;19998;-76
2021/12/21 15:49:03;;;;;;;2.55;1.77;;;;;;;;;;7389412;19;19998;-76
2021/12/21 15:51:28;;;;;;;7.63;2.95;;;;;;;;;;7393132;19;20433;-76
2021/12/21 15:53:53;;;;;;;5.18;3.00;;;;;;;;;;7389886;19;19999;-76
2021/12/21 15:56:19;;;;;;;4.53;2.28;;;;;;;;;;7388259;19;19995;-76
2021/12/21 15:58:45;;;;;;;4.43;2.75;;;;;;;;;;7389471;19;20074;-77
2021/12/21 16:01:12;;;;;;;5.07;2.40;;;;;;;;;;7389920;19;20005;-76
2021/12/21 16:03:38;;;;;;;3.10;1.77;;;;;;;;;;7389436;19;19998;-76
2021/12/21 16:06:06;;;;;;;2.83;1.98;;;;;;;;;;7388107;19;20007;-76